sensor_id;sensor_type;location;lat;lon;timestamp;pressure;altitude;pressure_sealevel;temperature;humidity
38616;BME280;24370;51.986;4.666;2023-04-02T00:07:50;101325.25;;;14.03;57.28
38616;BME280;24370;51.986;4.666;2023-04-02T00:15:37;101337.91;;;13.80;58.48
38616;BME280;24370;51.986;4.666;2023-04-02T00:18:04;101345.13;;;13.65;59.42
38616;BME280;24370;51.986;4.666;2023-04-02T00:20:34;101348.56;;;13.70;56.62
38616;BME280;24370;51.986;4.666;2023-04-02T00:23:01;101351.09;;;13.10;59.15
38616;BME280;24370;51.986;4.666;2023-04-02T00:25:29;101352.19;;;12.88;60.45
38616;BME280;24370;51.986;4.666;2023-04-02T00:27:58;101359.34;;;13.49;59.73
38616;BME280;24370;51.986;4.666;2023-04-02T00:30:24;101358.72;;;13.28;59.07
38616;BME280;24370;51.986;4.666;2023-04-02T00:32:50;101360.22;;;14.08;57.10
38616;BME280;24370;51.986;4.666;2023-04-02T00:35:23;101367.09;;;13.60;56.58
38616;BME280;24370;51.986;4.666;2023-04-02T00:37:50;101363.16;;;14.43;54.67
38616;BME280;24370;51.986;4.666;2023-04-02T00:40:23;101368.94;;;14.11;54.12
38616;BME280;24370;51.986;4.666;2023-04-02T00:42:49;101382.34;;;13.28;56.82
38616;BME280;24370;51.986;4.666;2023-04-02T00:45:24;101395.59;;;13.20;58.09
38616;BME280;24370;51.986;4.666;2023-04-02T00:47:51;101389.22;;;14.02;57.05
38616;BME280;24370;51.986;4.666;2023-04-02T00:50:25;101396.47;;;13.18;57.84
38616;BME280;24370;51.986;4.666;2023-04-02T00:52:53;101397.03;;;12.68;59.18
38616;BME280;24370;51.986;4.666;2023-04-02T00:55:33;101396.84;;;13.62;55.94
38616;BME280;24370;51.986;4.666;2023-04-02T00:58:02;101402.53;;;13.93;55.51
38616;BME280;24370;51.986;4.666;2023-04-02T01:00:35;101412.00;;;12.57;60.98
38616;BME280;24370;51.986;4.666;2023-04-02T01:05:48;101419.50;;;13.69;56.67
38616;BME280;24370;51.986;4.666;2023-04-02T01:08:27;101431.53;;;13.14;57.75
38616;BME280;24370;51.986;4.666;2023-04-02T01:16:37;101440.63;;;12.82;57.68
38616;BME280;24370;51.986;4.666;2023-04-02T01:19:42;101443.97;;;12.96;58.20
38616;BME280;24370;51.986;4.666;2023-04-02T01:25:00;101453.31;;;13.22;56.52
38616;BME280;24370;51.986;4.666;2023-04-02T01:27:38;101460.19;;;12.37;58.74
38616;BME280;24370;51.986;4.666;2023-04-02T01:30:06;101459.97;;;12.68;58.16
38616;BME280;24370;51.986;4.666;2023-04-02T01:32:33;101456.44;;;14.22;53.79
38616;BME280;24370;51.986;4.666;2023-04-02T01:34:59;101459.94;;;12.70;57.66
38616;BME280;24370;51.986;4.666;2023-04-02T01:45:48;101493.50;;;12.26;58.52
38616;BME280;24370;51.986;4.666;2023-04-02T01:48:17;101482.34;;;13.06;55.73
38616;BME280;24370;51.986;4.666;2023-04-02T01:50:47;101492.09;;;13.76;54.28
38616;BME280;24370;51.986;4.666;2023-04-02T01:53:15;101488.78;;;13.62;53.94
38616;BME280;24370;51.986;4.666;2023-04-02T01:55:48;101507.81;;;12.95;55.88
38616;BME280;24370;51.986;4.666;2023-04-02T01:58:18;101514.28;;;12.51;58.18
38616;BME280;24370;51.986;4.666;2023-04-02T02:01:05;101511.59;;;12.62;59.77
38616;BME280;24370;51.986;4.666;2023-04-02T02:03:33;101522.53;;;13.12;56.44
38616;BME280;24370;51.986;4.666;2023-04-02T02:06:01;101518.59;;;12.63;56.46
38616;BME280;24370;51.986;4.666;2023-04-02T02:08:38;101520.22;;;12.78;57.63
38616;BME280;24370;51.986;4.666;2023-04-02T02:11:06;101526.97;;;13.05;56.29
38616;BME280;24370;51.986;4.666;2023-04-02T02:13:32;101525.47;;;12.75;58.71
38616;BME280;24370;51.986;4.666;2023-04-02T02:15:58;101525.13;;;13.16;56.30
38616;BME280;24370;51.986;4.666;2023-04-02T02:18:25;101536.47;;;13.17;54.89
38616;BME280;24370;51.986;4.666;2023-04-02T02:20:52;101538.91;;;13.42;55.02
38616;BME280;24370;51.986;4.666;2023-04-02T02:23:18;101535.34;;;13.46;55.08
38616;BME280;24370;51.986;4.666;2023-04-02T02:25:45;101545.34;;;13.06;55.26
38616;BME280;24370;51.986;4.666;2023-04-02T02:28:17;101553.63;;;12.51;55.99
38616;BME280;24370;51.986;4.666;2023-04-02T02:30:58;101556.25;;;12.52;56.25
38616;BME280;24370;51.986;4.666;2023-04-02T02:33:41;101557.41;;;13.26;54.61
38616;BME280;24370;51.986;4.666;2023-04-02T02:36:15;101567.09;;;13.19;53.95
38616;BME280;24370;51.986;4.666;2023-04-02T02:38:54;101563.56;;;14.04;51.80
38616;BME280;24370;51.986;4.666;2023-04-02T02:41:32;101575.75;;;11.88;58.83
38616;BME280;24370;51.986;4.666;2023-04-02T02:44:11;101577.09;;;12.72;56.72
38616;BME280;24370;51.986;4.666;2023-04-02T02:46:51;101582.19;;;12.94;55.98
38616;BME280;24370;51.986;4.666;2023-04-02T02:49:23;101586.94;;;12.38;57.38
38616;BME280;24370;51.986;4.666;2023-04-02T02:52:11;101592.72;;;12.86;55.47
38616;BME280;24370;51.986;4.666;2023-04-02T02:54:39;101599.66;;;12.95;54.90
38616;BME280;24370;51.986;4.666;2023-04-02T02:57:09;101601.50;;;12.84;56.22
38616;BME280;24370;51.986;4.666;2023-04-02T02:59:37;101609.47;;;12.64;55.65
38616;BME280;24370;51.986;4.666;2023-04-02T03:02:04;101602.63;;;12.41;55.46
38616;BME280;24370;51.986;4.666;2023-04-02T03:04:31;101607.88;;;12.41;56.18
38616;BME280;24370;51.986;4.666;2023-04-02T03:07:01;101624.59;;;12.20;58.15
38616;BME280;24370;51.986;4.666;2023-04-02T03:15:05;101642.00;;;12.36;57.18
38616;BME280;24370;51.986;4.666;2023-04-02T03:17:45;101633.41;;;11.82;57.32
38616;BME280;24370;51.986;4.666;2023-04-02T03:20:16;101652.53;;;12.24;56.10
38616;BME280;24370;51.986;4.666;2023-04-02T03:23:01;101662.22;;;11.85;56.98
38616;BME280;24370;51.986;4.666;2023-04-02T03:25:40;101671.00;;;11.50;59.00
38616;BME280;24370;51.986;4.666;2023-04-02T03:28:12;101674.41;;;11.92;57.93
38616;BME280;24370;51.986;4.666;2023-04-02T03:30:53;101675.25;;;12.19;56.03
38616;BME280;24370;51.986;4.666;2023-04-02T03:33:34;101678.59;;;12.55;55.44
38616;BME280;24370;51.986;4.666;2023-04-02T03:36:13;101677.06;;;11.97;56.76
38616;BME280;24370;51.986;4.666;2023-04-02T03:38:48;101676.69;;;12.85;54.19
38616;BME280;24370;51.986;4.666;2023-04-02T03:41:20;101678.72;;;12.27;54.16
38616;BME280;24370;51.986;4.666;2023-04-02T03:43:51;101690.53;;;13.09;53.80
38616;BME280;24370;51.986;4.666;2023-04-02T03:46:38;101694.41;;;12.39;54.85
38616;BME280;24370;51.986;4.666;2023-04-02T03:49:11;101699.13;;;13.38;53.37
38616;BME280;24370;51.986;4.666;2023-04-02T03:51:50;101713.38;;;12.97;53.86
38616;BME280;24370;51.986;4.666;2023-04-02T03:54:16;101720.53;;;12.58;55.85
38616;BME280;24370;51.986;4.666;2023-04-02T03:56:43;101732.00;;;12.34;55.84
38616;BME280;24370;51.986;4.666;2023-04-02T03:59:21;101732.72;;;12.71;54.14
38616;BME280;24370;51.986;4.666;2023-04-02T04:01:57;101744.22;;;12.35;53.95
38616;BME280;24370;51.986;4.666;2023-04-02T04:04:26;101757.31;;;11.10;58.47
38616;BME280;24370;51.986;4.666;2023-04-02T04:06:54;101755.53;;;12.60;55.70
38616;BME280;24370;51.986;4.666;2023-04-02T04:09:34;101762.66;;;12.01;55.17
38616;BME280;24370;51.986;4.666;2023-04-02T04:18:04;101769.59;;;11.29;58.10
38616;BME280;24370;51.986;4.666;2023-04-02T04:20:52;101767.44;;;13.26;53.65
38616;BME280;24370;51.986;4.666;2023-04-02T04:23:30;101780.97;;;12.15;55.27
38616;BME280;24370;51.986;4.666;2023-04-02T04:28:42;101790.56;;;11.76;56.15
38616;BME280;24370;51.986;4.666;2023-04-02T04:31:22;101792.22;;;12.71;55.27
38616;BME280;24370;51.986;4.666;2023-04-02T04:33:54;101805.41;;;11.91;56.61
38616;BME280;24370;51.986;4.666;2023-04-02T04:36:34;101808.00;;;11.55;56.70
38616;BME280;24370;51.986;4.666;2023-04-02T04:39:10;101820.13;;;11.22;56.09
38616;BME280;24370;51.986;4.666;2023-04-02T04:41:39;101824.53;;;11.29;57.38
38616;BME280;24370;51.986;4.666;2023-04-02T04:44:17;101818.50;;;11.74;57.84
38616;BME280;24370;51.986;4.666;2023-04-02T04:47:29;101833.06;;;10.82;59.21
38616;BME280;24370;51.986;4.666;2023-04-02T04:54:36;101845.56;;;11.71;56.23
38616;BME280;24370;51.986;4.666;2023-04-02T04:57:04;101848.88;;;11.11;58.07
38616;BME280;24370;51.986;4.666;2023-04-02T04:59:33;101849.88;;;11.55;55.18
38616;BME280;24370;51.986;4.666;2023-04-02T05:02:18;101851.63;;;11.41;56.25
38616;BME280;24370;51.986;4.666;2023-04-02T05:04:51;101860.25;;;11.15;56.71
38616;BME280;24370;51.986;4.666;2023-04-02T05:15:15;101883.00;;;11.31;53.93
38616;BME280;24370;51.986;4.666;2023-04-02T05:20:53;101900.03;;;10.55;58.06
38616;BME280;24370;51.986;4.666;2023-04-02T05:23:28;101893.59;;;11.78;54.66
38616;BME280;24370;51.986;4.666;2023-04-02T05:26:01;101904.16;;;12.24;52.49
38616;BME280;24370;51.986;4.666;2023-04-02T05:28:30;101902.31;;;11.70;54.07
38616;BME280;24370;51.986;4.666;2023-04-02T05:31:02;101914.00;;;10.60;55.12
38616;BME280;24370;51.986;4.666;2023-04-02T05:33:32;101924.88;;;11.25;55.47
38616;BME280;24370;51.986;4.666;2023-04-02T05:36:11;101928.94;;;10.78;54.97
38616;BME280;24370;51.986;4.666;2023-04-02T05:38:42;101933.63;;;11.41;53.95
38616;BME280;24370;51.986;4.666;2023-04-02T05:41:21;101936.19;;;11.24;54.21
38616;BME280;24370;51.986;4.666;2023-04-02T05:43:57;101951.06;;;11.34;53.87
38616;BME280;24370;51.986;4.666;2023-04-02T05:46:30;101954.97;;;10.63;55.91
38616;BME280;24370;51.986;4.666;2023-04-02T05:48:58;101957.91;;;11.05;55.32
38616;BME280;24370;51.986;4.666;2023-04-02T05:51:38;101964.09;;;10.10;56.15
38616;BME280;24370;51.986;4.666;2023-04-02T05:54:14;101964.19;;;11.39;53.48
38616;BME280;24370;51.986;4.666;2023-04-02T05:56:43;101972.69;;;11.01;54.56
38616;BME280;24370;51.986;4.666;2023-04-02T05:59:24;101971.63;;;10.73;55.67
38616;BME280;24370;51.986;4.666;2023-04-02T06:04:55;101981.00;;;10.46;55.88
38616;BME280;24370;51.986;4.666;2023-04-02T06:07:30;101992.16;;;11.49;53.06
38616;BME280;24370;51.986;4.666;2023-04-02T06:10:09;102003.09;;;10.85;54.91
38616;BME280;24370;51.986;4.666;2023-04-02T06:12:56;102014.56;;;11.02;54.05
38616;BME280;24370;51.986;4.666;2023-04-02T06:15:26;102021.63;;;10.17;53.84
38616;BME280;24370;51.986;4.666;2023-04-02T06:17:58;102029.97;;;9.84;54.33
38616;BME280;24370;51.986;4.666;2023-04-02T06:20:24;102041.94;;;10.40;52.07
38616;BME280;24370;51.986;4.666;2023-04-02T06:23:02;102042.94;;;9.78;54.24
38616;BME280;24370;51.986;4.666;2023-04-02T06:25:50;102050.84;;;10.59;52.15
38616;BME280;24370;51.986;4.666;2023-04-02T06:28:28;102066.28;;;10.34;51.54
38616;BME280;24370;51.986;4.666;2023-04-02T06:31:00;102064.22;;;10.10;52.20
38616;BME280;24370;51.986;4.666;2023-04-02T06:33:27;102069.66;;;9.58;54.05
38616;BME280;24370;51.986;4.666;2023-04-02T06:35:53;102082.72;;;9.60;53.58
38616;BME280;24370;51.986;4.666;2023-04-02T06:38:28;102082.19;;;9.82;52.93
38616;BME280;24370;51.986;4.666;2023-04-02T06:40:59;102084.41;;;10.22;51.20
38616;BME280;24370;51.986;4.666;2023-04-02T06:46:14;102096.84;;;9.73;52.93
38616;BME280;24370;51.986;4.666;2023-04-02T06:48:44;102101.81;;;9.54;51.83
38616;BME280;24370;51.986;4.666;2023-04-02T06:51:13;102106.16;;;10.21;51.70
38616;BME280;24370;51.986;4.666;2023-04-02T06:53:43;102122.63;;;8.96;53.44
38616;BME280;24370;51.986;4.666;2023-04-02T06:58:57;102123.34;;;9.41;51.78
38616;BME280;24370;51.986;4.666;2023-04-02T07:01:26;102125.00;;;9.97;51.15
38616;BME280;24370;51.986;4.666;2023-04-02T07:03:53;102123.97;;;9.82;51.20
38616;BME280;24370;51.986;4.666;2023-04-02T07:06:19;102121.13;;;9.67;51.48
38616;BME280;24370;51.986;4.666;2023-04-02T07:08:46;102137.03;;;9.82;51.86
38616;BME280;24370;51.986;4.666;2023-04-02T07:11:16;102143.59;;;10.20;51.28
38616;BME280;24370;51.986;4.666;2023-04-02T07:13:43;102150.34;;;10.02;50.04
38616;BME280;24370;51.986;4.666;2023-04-02T07:16:17;102152.00;;;10.65;49.54
38616;BME280;24370;51.986;4.666;2023-04-02T07:18:43;102157.34;;;10.76;49.54
38616;BME280;24370;51.986;4.666;2023-04-02T07:21:08;102171.97;;;9.91;51.57
38616;BME280;24370;51.986;4.666;2023-04-02T07:23:34;102170.66;;;9.62;51.28
38616;BME280;24370;51.986;4.666;2023-04-02T07:26:00;102186.06;;;8.95;53.05
38616;BME280;24370;51.986;4.666;2023-04-02T07:28:27;102177.50;;;9.54;51.49
38616;BME280;24370;51.986;4.666;2023-04-02T07:30:53;102187.22;;;10.26;51.82
38616;BME280;24370;51.986;4.666;2023-04-02T07:33:21;102194.22;;;10.28;50.56
38616;BME280;24370;51.986;4.666;2023-04-02T07:35:48;102196.84;;;8.68;53.50
38616;BME280;24370;51.986;4.666;2023-04-02T07:38:13;102200.84;;;10.69;49.91
38616;BME280;24370;51.986;4.666;2023-04-02T07:40:39;102196.09;;;10.35;50.57
38616;BME280;24370;51.986;4.666;2023-04-02T07:43:05;102207.59;;;9.87;51.02
38616;BME280;24370;51.986;4.666;2023-04-02T07:45:31;102206.91;;;10.00;51.19
38616;BME280;24370;51.986;4.666;2023-04-02T07:47:57;102217.81;;;9.72;50.69
38616;BME280;24370;51.986;4.666;2023-04-02T07:50:23;102211.03;;;9.84;51.37
38616;BME280;24370;51.986;4.666;2023-04-02T07:52:48;102216.25;;;8.82;53.59
38616;BME280;24370;51.986;4.666;2023-04-02T07:55:15;102231.06;;;9.30;53.73
38616;BME280;24370;51.986;4.666;2023-04-02T07:57:48;102231.03;;;8.83;54.20
38616;BME280;24370;51.986;4.666;2023-04-02T08:00:14;102229.81;;;9.60;53.10
38616;BME280;24370;51.986;4.666;2023-04-02T08:02:40;102236.31;;;9.87;51.93
38616;BME280;24370;51.986;4.666;2023-04-02T08:05:06;102241.38;;;9.26;53.84
38616;BME280;24370;51.986;4.666;2023-04-02T08:07:31;102239.31;;;10.78;51.07
38616;BME280;24370;51.986;4.666;2023-04-02T08:09:57;102244.41;;;11.50;48.70
38616;BME280;24370;51.986;4.666;2023-04-02T08:12:22;102256.06;;;10.92;49.94
38616;BME280;24370;51.986;4.666;2023-04-02T08:14:48;102256.09;;;10.29;51.41
38616;BME280;24370;51.986;4.666;2023-04-02T08:17:13;102262.13;;;10.25;51.43
38616;BME280;24370;51.986;4.666;2023-04-02T08:19:38;102273.84;;;9.92;52.47
38616;BME280;24370;51.986;4.666;2023-04-02T08:22:04;102281.84;;;10.01;52.52
38616;BME280;24370;51.986;4.666;2023-04-02T08:24:29;102272.66;;;10.97;48.84
38616;BME280;24370;51.986;4.666;2023-04-02T08:26:55;102287.00;;;10.58;49.39
38616;BME280;24370;51.986;4.666;2023-04-02T08:29:21;102290.06;;;10.29;50.76
38616;BME280;24370;51.986;4.666;2023-04-02T08:31:46;102299.50;;;9.64;51.61
38616;BME280;24370;51.986;4.666;2023-04-02T08:34:12;102297.53;;;10.03;51.07
38616;BME280;24370;51.986;4.666;2023-04-02T08:36:40;102319.72;;;9.27;52.63
38616;BME280;24370;51.986;4.666;2023-04-02T08:39:07;102323.47;;;9.42;52.83
38616;BME280;24370;51.986;4.666;2023-04-02T08:44:51;102339.31;;;10.03;50.19
38616;BME280;24370;51.986;4.666;2023-04-02T08:47:20;102337.25;;;9.34;51.81
38616;BME280;24370;51.986;4.666;2023-04-02T08:49:55;102338.81;;;10.27;49.72
38616;BME280;24370;51.986;4.666;2023-04-02T08:52:26;102346.94;;;9.89;49.85
38616;BME280;24370;51.986;4.666;2023-04-02T08:54:52;102343.34;;;10.36;50.01
38616;BME280;24370;51.986;4.666;2023-04-02T08:57:53;102344.59;;;10.64;49.72
38616;BME280;24370;51.986;4.666;2023-04-02T09:00:41;102338.22;;;10.44;49.58
38616;BME280;24370;51.986;4.666;2023-04-02T09:03:11;102339.81;;;10.98;48.31
38616;BME280;24370;51.986;4.666;2023-04-02T09:05:41;102342.53;;;11.05;48.34
38616;BME280;24370;51.986;4.666;2023-04-02T09:08:26;102344.91;;;11.66;47.50
38616;BME280;24370;51.986;4.666;2023-04-02T09:11:10;102352.09;;;10.38;49.06
38616;BME280;24370;51.986;4.666;2023-04-02T09:13:43;102362.75;;;9.98;49.46
38616;BME280;24370;51.986;4.666;2023-04-02T09:16:15;102371.78;;;10.19;49.99
38616;BME280;24370;51.986;4.666;2023-04-02T09:18:43;102373.41;;;10.66;47.54
38616;BME280;24370;51.986;4.666;2023-04-02T09:23:47;102381.88;;;11.14;48.43
38616;BME280;24370;51.986;4.666;2023-04-02T09:26:21;102386.38;;;11.26;46.63
38616;BME280;24370;51.986;4.666;2023-04-02T09:28:49;102406.94;;;10.37;48.23
38616;BME280;24370;51.986;4.666;2023-04-02T09:31:21;102390.38;;;10.97;47.94
38616;BME280;24370;51.986;4.666;2023-04-02T09:33:50;102405.94;;;10.30;48.37
38616;BME280;24370;51.986;4.666;2023-04-02T09:41:33;102403.56;;;11.79;45.52
38616;BME280;24370;51.986;4.666;2023-04-02T09:46:36;102413.34;;;10.54;47.93
38616;BME280;24370;51.986;4.666;2023-04-02T09:49:01;102412.69;;;12.21;44.54
38616;BME280;24370;51.986;4.666;2023-04-02T09:51:31;102404.72;;;13.55;40.89
38616;BME280;24370;51.986;4.666;2023-04-02T09:56:31;102402.75;;;13.01;39.08
38616;BME280;24370;51.986;4.666;2023-04-02T10:01:46;102429.34;;;14.34;37.31
38616;BME280;24370;51.986;4.666;2023-04-02T10:06:55;102422.97;;;16.60;34.18
38616;BME280;24370;51.986;4.666;2023-04-02T10:09:30;102419.16;;;16.90;33.22
38616;BME280;24370;51.986;4.666;2023-04-02T10:11:57;102414.63;;;16.11;34.65
38616;BME280;24370;51.986;4.666;2023-04-02T10:14:30;102427.84;;;17.00;32.39
38616;BME280;24370;51.986;4.666;2023-04-02T10:17:00;102424.63;;;16.73;32.39
38616;BME280;24370;51.986;4.666;2023-04-02T10:19:34;102442.41;;;15.05;34.78
38616;BME280;24370;51.986;4.666;2023-04-02T10:22:04;102438.69;;;15.54;34.49
38616;BME280;24370;51.986;4.666;2023-04-02T10:24:33;102450.31;;;14.99;35.38
38616;BME280;24370;51.986;4.666;2023-04-02T10:29:36;102452.22;;;16.37;32.95
38616;BME280;24370;51.986;4.666;2023-04-02T10:32:22;102454.47;;;15.57;34.81
38616;BME280;24370;51.986;4.666;2023-04-02T10:35:07;102447.59;;;15.29;35.15
38616;BME280;24370;51.986;4.666;2023-04-02T10:38:00;102447.78;;;16.43;34.07
38616;BME280;24370;51.986;4.666;2023-04-02T10:40:36;102454.47;;;16.77;34.71
38616;BME280;24370;51.986;4.666;2023-04-02T10:43:58;102461.53;;;16.76;32.54
38616;BME280;24370;51.986;4.666;2023-04-02T10:46:47;102476.00;;;17.94;32.76
38616;BME280;24370;51.986;4.666;2023-04-02T10:49:26;102471.88;;;17.71;31.17
38616;BME280;24370;51.986;4.666;2023-04-02T10:54:49;102473.63;;;17.02;32.21
38616;BME280;24370;51.986;4.666;2023-04-02T10:57:29;102486.00;;;16.97;32.38
38616;BME280;24370;51.986;4.666;2023-04-02T11:03:05;102485.94;;;17.76;31.57
38616;BME280;24370;51.986;4.666;2023-04-02T11:05:40;102484.28;;;16.93;31.76
38616;BME280;24370;51.986;4.666;2023-04-02T11:08:20;102480.75;;;18.81;30.75
38616;BME280;24370;51.986;4.666;2023-04-02T11:10:51;102493.16;;;16.81;31.05
38616;BME280;24370;51.986;4.666;2023-04-02T11:13:40;102483.47;;;17.64;31.47
38616;BME280;24370;51.986;4.666;2023-04-02T11:16:13;102491.06;;;17.19;31.58
38616;BME280;24370;51.986;4.666;2023-04-02T11:18:42;102494.66;;;17.11;31.87
38616;BME280;24370;51.986;4.666;2023-04-02T11:21:38;102490.72;;;16.59;33.15
38616;BME280;24370;51.986;4.666;2023-04-02T11:24:05;102502.09;;;16.66;33.26
38616;BME280;24370;51.986;4.666;2023-04-02T11:26:39;102504.63;;;17.61;31.39
38616;BME280;24370;51.986;4.666;2023-04-02T11:29:22;102511.59;;;17.68;31.57
38616;BME280;24370;51.986;4.666;2023-04-02T11:31:50;102515.47;;;16.49;32.63
38616;BME280;24370;51.986;4.666;2023-04-02T11:39:55;102517.88;;;17.59;30.80
38616;BME280;24370;51.986;4.666;2023-04-02T11:44:53;102509.63;;;17.83;30.31
38616;BME280;24370;51.986;4.666;2023-04-02T11:47:19;102507.66;;;19.06;29.38
38616;BME280;24370;51.986;4.666;2023-04-02T11:52:37;102517.47;;;18.50;30.12
38616;BME280;24370;51.986;4.666;2023-04-02T11:55:21;102513.00;;;17.97;31.28
38616;BME280;24370;51.986;4.666;2023-04-02T11:58:07;102514.91;;;18.98;31.29
38616;BME280;24370;51.986;4.666;2023-04-02T12:00:59;102514.13;;;19.37;30.40
38616;BME280;24370;51.986;4.666;2023-04-02T12:04:09;102512.59;;;18.25;30.97
38616;BME280;24370;51.986;4.666;2023-04-02T12:09:21;102524.19;;;19.63;29.93
38616;BME280;24370;51.986;4.666;2023-04-02T12:11:54;102532.88;;;18.24;30.46
38616;BME280;24370;51.986;4.666;2023-04-02T12:17:01;102537.47;;;19.18;28.66
38616;BME280;24370;51.986;4.666;2023-04-02T12:19:28;102528.34;;;17.69;30.29
38616;BME280;24370;51.986;4.666;2023-04-02T12:21:56;102539.34;;;18.03;29.50
38616;BME280;24370;51.986;4.666;2023-04-02T12:24:25;102548.06;;;17.40;30.25
38616;BME280;24370;51.986;4.666;2023-04-02T12:27:30;102556.19;;;17.21;30.84
38616;BME280;24370;51.986;4.666;2023-04-02T12:30:12;102563.81;;;17.51;31.79
38616;BME280;24370;51.986;4.666;2023-04-02T12:32:39;102559.44;;;18.74;29.71
38616;BME280;24370;51.986;4.666;2023-04-02T12:35:05;102549.75;;;19.25;29.46
38616;BME280;24370;51.986;4.666;2023-04-02T12:37:32;102543.66;;;18.10;30.89
38616;BME280;24370;51.986;4.666;2023-04-02T12:40:15;102554.09;;;17.51;32.16
38616;BME280;24370;51.986;4.666;2023-04-02T12:42:41;102548.25;;;17.21;31.78
38616;BME280;24370;51.986;4.666;2023-04-02T12:45:19;102559.84;;;17.09;31.65
38616;BME280;24370;51.986;4.666;2023-04-02T12:47:45;102556.44;;;18.41;31.93
38616;BME280;24370;51.986;4.666;2023-04-02T12:50:13;102553.50;;;16.17;33.84
38616;BME280;24370;51.986;4.666;2023-04-02T12:52:43;102561.06;;;18.27;31.23
38616;BME280;24370;51.986;4.666;2023-04-02T12:55:19;102563.06;;;16.37;34.08
38616;BME280;24370;51.986;4.666;2023-04-02T12:57:45;102559.81;;;17.12;33.34
38616;BME280;24370;51.986;4.666;2023-04-02T13:02:49;102559.81;;;17.12;31.69
38616;BME280;24370;51.986;4.666;2023-04-02T13:05:37;102559.06;;;17.77;31.47
38616;BME280;24370;51.986;4.666;2023-04-02T13:08:15;102556.69;;;18.26;29.92
38616;BME280;24370;51.986;4.666;2023-04-02T13:10:41;102566.91;;;17.07;31.33
38616;BME280;24370;51.986;4.666;2023-04-02T13:13:14;102565.91;;;17.19;32.95
38616;BME280;24370;51.986;4.666;2023-04-02T13:15:41;102567.28;;;16.58;33.01
38616;BME280;24370;51.986;4.666;2023-04-02T13:18:21;102565.72;;;18.11;31.65
38616;BME280;24370;51.986;4.666;2023-04-02T13:20:55;102577.75;;;16.73;32.11
38616;BME280;24370;51.986;4.666;2023-04-02T13:25:54;102576.78;;;17.72;31.33
38616;BME280;24370;51.986;4.666;2023-04-02T13:28:20;102587.31;;;16.91;31.04
38616;BME280;24370;51.986;4.666;2023-04-02T13:30:46;102584.38;;;17.21;31.25
38616;BME280;24370;51.986;4.666;2023-04-02T13:33:12;102584.81;;;16.70;32.03
38616;BME280;24370;51.986;4.666;2023-04-02T13:35:38;102588.31;;;16.70;32.57
38616;BME280;24370;51.986;4.666;2023-04-02T13:38:04;102586.00;;;17.34;32.74
38616;BME280;24370;51.986;4.666;2023-04-02T13:40:31;102574.72;;;17.97;31.48
38616;BME280;24370;51.986;4.666;2023-04-02T13:42:57;102590.53;;;17.23;31.82
38616;BME280;24370;51.986;4.666;2023-04-02T13:45:28;102584.09;;;17.49;31.09
38616;BME280;24370;51.986;4.666;2023-04-02T13:47:55;102584.47;;;17.92;30.82
38616;BME280;24370;51.986;4.666;2023-04-02T13:50:26;102580.69;;;18.12;30.53
38616;BME280;24370;51.986;4.666;2023-04-02T13:52:53;102581.28;;;18.34;31.03
38616;BME280;24370;51.986;4.666;2023-04-02T13:55:23;102584.09;;;18.22;30.06
38616;BME280;24370;51.986;4.666;2023-04-02T13:57:50;102589.38;;;18.23;30.19
38616;BME280;24370;51.986;4.666;2023-04-02T14:00:16;102594.84;;;18.69;29.36
38616;BME280;24370;51.986;4.666;2023-04-02T14:02:49;102597.69;;;17.92;31.41
38616;BME280;24370;51.986;4.666;2023-04-02T14:08:05;102603.56;;;17.41;31.27
38616;BME280;24370;51.986;4.666;2023-04-02T14:21:46;102621.66;;;16.90;32.59
38616;BME280;24370;51.986;4.666;2023-04-02T14:24:18;102621.28;;;17.30;31.28
38616;BME280;24370;51.986;4.666;2023-04-02T14:32:02;102631.22;;;17.03;32.67
38616;BME280;24370;51.986;4.666;2023-04-02T14:34:42;102632.09;;;17.04;32.51
38616;BME280;24370;51.986;4.666;2023-04-02T14:42:43;102621.84;;;18.33;31.96
38616;BME280;24370;51.986;4.666;2023-04-02T14:46:07;102640.38;;;17.60;31.16
38616;BME280;24370;51.986;4.666;2023-04-02T14:51:08;102636.59;;;17.83;30.78
38616;BME280;24370;51.986;4.666;2023-04-02T14:54:07;102641.44;;;18.20;30.91
38616;BME280;24370;51.986;4.666;2023-04-02T14:56:38;102647.16;;;17.83;30.28
38616;BME280;24370;51.986;4.666;2023-04-02T15:01:39;102648.84;;;17.90;31.15
38616;BME280;24370;51.986;4.666;2023-04-02T15:04:13;102648.31;;;17.58;30.56
38616;BME280;24370;51.986;4.666;2023-04-02T15:06:47;102652.75;;;16.40;32.02
38616;BME280;24370;51.986;4.666;2023-04-02T15:12:22;102658.94;;;17.54;30.91
38616;BME280;24370;51.986;4.666;2023-04-02T15:15:07;102652.41;;;17.86;30.91
38616;BME280;24370;51.986;4.666;2023-04-02T15:17:37;102657.28;;;17.42;30.84
38616;BME280;24370;51.986;4.666;2023-04-02T15:20:15;102656.69;;;17.13;31.39
38616;BME280;24370;51.986;4.666;2023-04-02T15:25:36;102661.38;;;16.70;32.15
38616;BME280;24370;51.986;4.666;2023-04-02T15:31:05;102666.94;;;16.14;31.05
38616;BME280;24370;51.986;4.666;2023-04-02T15:33:41;102665.66;;;16.88;30.93
38616;BME280;24370;51.986;4.666;2023-04-02T15:39:49;102674.06;;;17.39;30.80
38616;BME280;24370;51.986;4.666;2023-04-02T15:42:07;102667.63;;;17.65;30.74
38616;BME280;24370;51.986;4.666;2023-04-02T15:44:45;102665.53;;;17.98;30.50
38616;BME280;24370;51.986;4.666;2023-04-02T15:55:58;102669.31;;;16.68;32.14
38616;BME280;24370;51.986;4.666;2023-04-02T16:01:24;102675.78;;;17.43;30.91
38616;BME280;24370;51.986;4.666;2023-04-02T16:09:30;102686.56;;;17.22;31.96
38616;BME280;24370;51.986;4.666;2023-04-02T16:12:18;102688.03;;;17.54;30.94
38616;BME280;24370;51.986;4.666;2023-04-02T16:14:45;102681.28;;;17.20;31.07
38616;BME280;24370;51.986;4.666;2023-04-02T16:17:18;102688.34;;;17.17;30.36
38616;BME280;24370;51.986;4.666;2023-04-02T16:20:07;102692.00;;;16.99;31.55